createdAt,value
2019-01-26T00:00:57.068Z,100616.42
2019-01-26T00:03:24.305Z,100614.80
2019-01-26T00:05:51.564Z,100624.41
2019-01-26T00:08:18.860Z,100623.44
2019-01-26T00:10:46.066Z,100622.87
2019-01-26T00:13:13.297Z,100621.27
2019-01-26T00:15:40.627Z,100629.37
2019-01-26T00:18:07.969Z,100625.28
2019-01-26T00:20:36.486Z,100627.17
2019-01-26T00:23:04.104Z,100617.25
2019-01-26T00:25:31.308Z,100601.58
2019-01-26T00:27:58.509Z,100599.59
2019-01-26T00:30:25.757Z,100600.28
2019-01-26T00:32:52.950Z,100601.82
2019-01-26T00:35:20.162Z,100595.20
2019-01-26T00:37:47.388Z,100583.47
2019-01-26T00:40:15.044Z,100578.73
2019-01-26T00:42:42.211Z,100574.58
2019-01-26T00:45:09.463Z,100563.09
2019-01-26T00:47:36.655Z,100564.44
2019-01-26T00:50:04.736Z,100563.47
2019-01-26T00:52:32.019Z,100560.62
2019-01-26T00:54:59.238Z,100563.46
2019-01-26T00:57:26.587Z,100581.59
2019-01-26T00:59:53.795Z,100584.38
2019-01-26T01:02:21.106Z,100586.98
2019-01-26T01:04:48.354Z,100592.50
2019-01-26T01:07:15.664Z,100588.49
2019-01-26T01:09:42.973Z,100589.84
2019-01-26T01:12:10.225Z,100580.09
2019-01-26T01:14:37.484Z,100581.03
2019-01-26T01:17:04.728Z,100580.28
2019-01-26T01:19:31.938Z,100579.41
2019-01-26T01:21:59.168Z,100577.69
2019-01-26T01:24:26.400Z,100581.83
2019-01-26T01:26:53.680Z,100584.01
2019-01-26T01:29:20.920Z,100571.57
2019-01-26T01:31:48.139Z,100571.91
2019-01-26T01:34:15.381Z,100559.69
2019-01-26T01:36:42.584Z,100570.41
2019-01-26T01:39:09.938Z,100561.83
2019-01-26T01:41:37.168Z,100560.06
2019-01-26T01:44:04.449Z,100560.06
2019-01-26T01:46:31.656Z,100559.31
2019-01-26T01:48:58.872Z,100547.43
2019-01-26T01:51:26.105Z,100560.25
2019-01-26T01:53:53.319Z,100549.07
2019-01-26T01:56:20.560Z,100541.16
2019-01-26T01:58:47.756Z,100537.75
2019-01-26T02:01:15.011Z,100535.14
2019-01-26T02:03:42.214Z,100531.92
2019-01-26T02:06:09.416Z,100524.38
2019-01-26T02:08:36.730Z,100524.01
2019-01-26T02:11:04.057Z,100522.13
2019-01-26T02:13:31.307Z,100509.11
2019-01-26T02:15:58.524Z,100509.55
2019-01-26T02:18:25.749Z,100509.14
2019-01-26T02:20:52.985Z,100510.39
2019-01-26T02:23:20.201Z,100503.48
2019-01-26T02:25:47.451Z,100504.37
2019-01-26T02:28:14.715Z,100499.67
2019-01-26T02:30:42.032Z,100497.15
2019-01-26T02:33:09.256Z,100492.84
2019-01-26T02:35:36.519Z,100480.13
2019-01-26T02:38:03.917Z,100486.58
2019-01-26T02:40:31.176Z,100488.02
2019-01-26T02:42:58.418Z,100492.84
2019-01-26T02:45:25.631Z,100481.22
2019-01-26T02:47:52.934Z,100480.24
2019-01-26T02:50:20.191Z,100476.64
2019-01-26T02:52:47.396Z,100476.33
2019-01-26T02:55:14.751Z,100475.72
2019-01-26T02:57:41.979Z,100473.72
2019-01-26T03:00:15.300Z,100469.05
2019-01-26T03:02:42.552Z,100463.39
2019-01-26T03:05:09.974Z,100461.25
2019-01-26T03:07:37.238Z,100456.75
2019-01-26T03:10:05.951Z,100450.22
2019-01-26T03:12:33.154Z,100443.56
2019-01-26T03:15:00.419Z,100445.84
2019-01-26T03:17:27.608Z,100437.42
2019-01-26T03:19:54.815Z,100433.05
2019-01-26T03:22:22.071Z,100425.22
2019-01-26T03:24:49.295Z,100420.30
2019-01-26T03:27:16.546Z,100418.98
2019-01-26T03:29:43.755Z,100415.49
2019-01-26T03:32:10.963Z,100412.09
2019-01-26T03:34:38.183Z,100405.94
2019-01-26T03:37:05.415Z,100406.61
2019-01-26T03:39:32.654Z,100399.25
2019-01-26T03:41:59.893Z,100395.41
2019-01-26T03:44:27.112Z,100385.16
2019-01-26T03:46:54.366Z,100382.55
2019-01-26T03:49:21.580Z,100382.58
2019-01-26T03:51:48.827Z,100377.78
2019-01-26T03:54:16.427Z,100373.09
2019-01-26T03:56:43.638Z,100370.36
2019-01-26T03:59:10.879Z,100370.68
2019-01-26T04:01:38.434Z,100375.23
2019-01-26T04:04:05.650Z,100367.33
2019-01-26T04:06:33.116Z,100363.20
2019-01-26T04:09:00.442Z,100363.09
2019-01-26T04:11:28.028Z,100365.05
2019-01-26T04:13:55.337Z,100358.52
2019-01-26T04:16:22.746Z,100353.49
2019-01-26T04:18:50.003Z,100359.56
2019-01-26T04:21:17.229Z,100352.61
2019-01-26T04:23:47.239Z,100351.69
2019-01-26T04:26:14.894Z,100350.00
2019-01-26T04:28:42.099Z,100336.47
2019-01-26T04:31:09.358Z,100334.78
2019-01-26T04:33:36.798Z,100339.73
2019-01-26T04:36:04.099Z,100335.28
2019-01-26T04:38:31.382Z,100325.67
2019-01-26T04:40:58.603Z,100325.25
2019-01-26T04:43:25.795Z,100316.98
2019-01-26T04:45:53.344Z,100328.16
2019-01-26T04:48:20.552Z,100312.11
2019-01-26T04:50:48.193Z,100314.72
2019-01-26T04:53:15.417Z,100314.67
2019-01-26T04:55:42.626Z,100314.14
2019-01-26T04:58:09.884Z,100323.17
2019-01-26T05:00:37.125Z,100319.09
2019-01-26T05:03:04.349Z,100312.83
2019-01-26T05:05:31.603Z,100312.91
2019-01-26T05:07:58.883Z,100308.09
2019-01-26T05:10:26.190Z,100305.25
2019-01-26T05:12:53.439Z,100301.80
2019-01-26T05:15:20.647Z,100296.56
2019-01-26T05:17:49.234Z,100301.22
2019-01-26T05:20:19.018Z,100298.13
2019-01-26T05:22:46.459Z,100298.52
2019-01-26T05:25:13.659Z,100299.06
2019-01-26T05:27:41.278Z,100304.22
2019-01-26T05:30:15.543Z,100310.05
2019-01-26T05:32:42.788Z,100303.09
2019-01-26T05:35:10.200Z,100308.28
2019-01-26T05:37:37.540Z,100311.05
2019-01-26T05:40:07.173Z,100303.59
2019-01-26T05:42:34.381Z,100316.66
2019-01-26T05:45:01.987Z,100314.94
2019-01-26T05:47:29.316Z,100313.13
2019-01-26T05:49:56.735Z,100306.36
2019-01-26T05:52:24.406Z,100311.97
2019-01-26T05:54:51.661Z,100308.05
2019-01-26T05:57:18.990Z,100313.13
2019-01-26T05:59:46.210Z,100315.82
2019-01-26T06:02:13.590Z,100314.05
2019-01-26T06:04:41.158Z,100320.05
2019-01-26T06:07:08.681Z,100313.97
2019-01-26T06:09:36.127Z,100310.47
2019-01-26T06:12:03.384Z,100311.05
2019-01-26T06:14:30.617Z,100315.89
2019-01-26T06:16:57.823Z,100314.28
2019-01-26T06:19:25.050Z,100308.52
2019-01-26T06:21:52.313Z,100312.97
2019-01-26T06:24:19.606Z,100315.66
2019-01-26T06:26:46.783Z,100316.88
2019-01-26T06:29:13.979Z,100313.34
2019-01-26T06:31:41.220Z,100316.00
2019-01-26T06:34:08.481Z,100324.19
2019-01-26T06:36:35.681Z,100317.89
2019-01-26T06:39:05.579Z,100310.66
2019-01-26T06:41:32.799Z,100311.54
2019-01-26T06:44:00.016Z,100316.14
2019-01-26T06:46:27.263Z,100313.22
2019-01-26T06:48:57.699Z,100314.17
2019-01-26T06:51:24.927Z,100323.07
2019-01-26T06:53:52.168Z,100319.75
2019-01-26T06:56:19.408Z,100318.67
2019-01-26T06:58:46.675Z,100316.88
2019-01-26T07:01:13.915Z,100317.84
2019-01-26T07:03:41.111Z,100322.26
2019-01-26T07:06:15.662Z,100312.22
2019-01-26T07:08:43.171Z,100312.22
2019-01-26T07:11:10.476Z,100326.29
2019-01-26T07:13:37.901Z,100320.95
2019-01-26T07:16:05.246Z,100322.02
2019-01-26T07:18:32.467Z,100316.79
2019-01-26T07:20:59.691Z,100320.36
2019-01-26T07:23:27.315Z,100324.44
2019-01-26T07:25:54.529Z,100319.86
2019-01-26T07:28:21.719Z,100325.50
2019-01-26T07:30:48.948Z,100334.12
2019-01-26T07:33:16.552Z,100332.89
2019-01-26T07:35:43.848Z,100331.05
2019-01-26T07:38:13.751Z,100332.11
2019-01-26T07:40:40.250Z,100336.11
2019-01-26T07:43:07.735Z,100330.80
2019-01-26T07:45:34.959Z,100344.25
2019-01-26T07:48:02.448Z,100341.31
2019-01-26T07:50:29.926Z,100347.92
2019-01-26T07:52:57.167Z,100347.92
2019-01-26T07:55:24.395Z,100339.96
2019-01-26T07:57:51.623Z,100338.17
2019-01-26T08:00:22.014Z,100338.52
2019-01-26T08:02:49.389Z,100335.37
2019-01-26T08:05:16.805Z,100341.73
2019-01-26T08:07:44.044Z,100341.73
2019-01-26T08:10:13.444Z,100336.14
2019-01-26T08:12:40.861Z,100337.56
2019-01-26T08:15:10.489Z,100333.39
2019-01-26T08:17:37.779Z,100335.09
2019-01-26T08:20:07.054Z,100323.88
2019-01-26T08:22:34.298Z,100335.37
2019-01-26T08:25:01.568Z,100328.66
2019-01-26T08:27:28.796Z,100330.63
2019-01-26T08:29:56.027Z,100336.50
2019-01-26T08:32:23.320Z,100333.64
2019-01-26T08:34:50.564Z,100338.77
2019-01-26T08:37:17.777Z,100340.19
2019-01-26T08:39:45.043Z,100337.99
2019-01-26T08:42:12.304Z,100339.23
2019-01-26T08:44:39.568Z,100334.11
2019-01-26T08:47:06.786Z,100339.73
2019-01-26T08:49:34.305Z,100342.63
2019-01-26T08:52:01.593Z,100335.06
2019-01-26T08:54:29.086Z,100338.52
2019-01-26T08:56:56.364Z,100338.63
2019-01-26T08:59:23.613Z,100335.73
2019-01-26T09:01:55.433Z,100338.87
2019-01-26T09:04:26.110Z,100337.89
2019-01-26T09:06:57.452Z,100340.78
2019-01-26T09:09:24.727Z,100336.33
2019-01-26T09:11:51.950Z,100336.16
2019-01-26T09:14:19.170Z,100345.88
2019-01-26T09:16:46.411Z,100342.09
2019-01-26T09:19:13.664Z,100337.93
2019-01-26T09:21:40.873Z,100336.97
2019-01-26T09:24:08.104Z,100346.66
2019-01-26T09:26:35.451Z,100337.57
2019-01-26T09:29:03.412Z,100340.26
2019-01-26T09:31:30.625Z,100342.34
2019-01-26T09:33:57.876Z,100342.34
2019-01-26T09:36:25.150Z,100339.41
2019-01-26T09:38:52.490Z,100334.11
2019-01-26T09:41:19.760Z,100333.30
2019-01-26T09:43:46.970Z,100336.37
2019-01-26T09:46:14.184Z,100332.20
2019-01-26T09:48:46.186Z,100332.84
2019-01-26T09:51:10.825Z,100332.13
2019-01-26T09:53:38.046Z,100332.13
2019-01-26T09:56:05.440Z,100330.29
2019-01-26T09:58:32.848Z,100328.98
2019-01-26T10:01:00.148Z,100328.63
2019-01-26T10:03:27.417Z,100323.39
2019-01-26T10:05:54.863Z,100314.23
2019-01-26T10:08:22.662Z,100314.23
2019-01-26T10:10:49.996Z,100323.17
2019-01-26T10:13:17.235Z,100316.59
2019-01-26T10:15:44.472Z,100321.41
2019-01-26T10:18:11.836Z,100315.39
2019-01-26T10:20:39.099Z,100313.45
2019-01-26T10:23:06.343Z,100314.97
2019-01-26T10:25:33.709Z,100314.97
2019-01-26T10:28:00.926Z,100315.67
2019-01-26T10:30:33.594Z,100314.68
2019-01-26T10:33:00.848Z,100311.45
2019-01-26T10:35:47.769Z,100302.81
2019-01-26T10:38:15.046Z,100305.47
2019-01-26T10:41:01.858Z,100298.89
2019-01-26T10:43:29.714Z,100307.20
2019-01-26T10:45:56.971Z,100299.72
2019-01-26T10:48:24.193Z,100304.78
2019-01-26T10:50:51.467Z,100296.21
2019-01-26T10:53:18.732Z,100292.02
2019-01-26T10:55:45.948Z,100292.02
2019-01-26T10:58:13.212Z,100297.69
2019-01-26T11:00:40.461Z,100286.23
2019-01-26T11:03:07.753Z,100281.48
2019-01-26T11:05:36.762Z,100288.27
2019-01-26T11:08:04.113Z,100286.23
2019-01-26T11:10:31.522Z,100275.16
2019-01-26T11:12:59.138Z,100273.75
2019-01-26T11:15:26.435Z,100273.75
2019-01-26T11:17:53.928Z,100264.59
2019-01-26T11:20:21.173Z,100268.91
2019-01-26T11:22:48.510Z,100273.10
2019-01-26T11:25:15.864Z,100273.10
2019-01-26T11:27:43.082Z,100270.28
2019-01-26T11:32:53.059Z,100264.20
2019-01-26T11:35:20.422Z,100264.09
2019-01-26T11:37:47.628Z,100265.05
2019-01-26T11:40:20.805Z,100261.05
2019-01-26T11:42:48.118Z,100251.95
2019-01-26T11:45:35.164Z,100257.19
2019-01-26T11:48:03.439Z,100257.19
2019-01-26T11:50:35.934Z,100250.55
2019-01-26T11:53:03.385Z,100251.23
2019-01-26T11:55:39.000Z,100227.59
2019-01-26T11:58:06.362Z,100227.59
2019-01-26T12:00:59.525Z,100231.88
2019-01-26T12:03:37.979Z,100225.49
2019-01-26T12:06:36.745Z,100223.03
2019-01-26T12:09:07.582Z,100224.70
2019-01-26T12:11:34.801Z,100219.95
2019-01-26T12:14:02.040Z,100215.51
2019-01-26T12:16:29.265Z,100211.81
2019-01-26T12:18:56.536Z,100207.42
2019-01-26T12:21:23.798Z,100193.02
2019-01-26T12:23:51.033Z,100193.02
2019-01-26T12:26:18.838Z,100191.17
2019-01-26T12:28:47.257Z,100191.35
2019-01-26T12:31:14.612Z,100191.35
2019-01-26T12:33:44.868Z,100192.56
2019-01-26T12:36:12.108Z,100191.44
2019-01-26T12:38:39.344Z,100185.30
2019-01-26T12:41:06.582Z,100177.86
2019-01-26T12:43:33.784Z,100177.86
2019-01-26T12:46:01.030Z,100165.28
2019-01-26T12:48:29.263Z,100168.84
2019-01-26T12:50:56.524Z,100172.05
2019-01-26T12:53:24.079Z,100168.72
2019-01-26T12:55:51.335Z,100164.14
2019-01-26T12:58:18.683Z,100164.00
2019-01-26T13:00:45.948Z,100162.05
2019-01-26T13:03:13.177Z,100155.89
2019-01-26T13:05:40.447Z,100159.55
2019-01-26T13:08:10.048Z,100152.07
2019-01-26T13:10:41.132Z,100148.63
2019-01-26T13:13:08.539Z,100146.52
2019-01-26T13:15:35.864Z,100132.33
2019-01-26T13:18:03.523Z,100140.80
2019-01-26T13:20:31.140Z,100137.57
2019-01-26T13:22:58.440Z,100137.57
2019-01-26T13:25:25.777Z,100129.99
2019-01-26T13:27:53.004Z,100126.48
2019-01-26T13:30:20.284Z,100124.69
2019-01-26T13:32:47.601Z,100116.06
2019-01-26T13:35:15.296Z,100113.62
2019-01-26T13:37:42.605Z,100105.67
2019-01-26T13:40:12.428Z,100100.43
2019-01-26T13:42:39.724Z,100089.06
2019-01-26T13:45:08.876Z,100089.06
2019-01-26T13:47:37.837Z,100096.21
2019-01-26T13:50:06.531Z,100099.62
2019-01-26T13:52:38.298Z,100090.89
2019-01-26T13:55:07.412Z,100088.72
2019-01-26T13:57:34.661Z,100089.38
2019-01-26T14:00:01.926Z,100086.67
2019-01-26T14:02:29.200Z,100076.61
2019-01-26T14:04:56.440Z,100072.48
2019-01-26T14:07:23.982Z,100072.48
2019-01-26T14:09:51.233Z,100072.91
2019-01-26T14:12:18.498Z,100071.39
2019-01-26T14:14:45.804Z,100071.39
2019-01-26T14:17:14.850Z,100067.75
2019-01-26T14:19:42.076Z,100057.64
2019-01-26T14:22:09.317Z,100050.01
2019-01-26T14:24:36.555Z,100053.83
2019-01-26T14:27:03.849Z,100053.00
2019-01-26T14:29:31.103Z,100043.46
2019-01-26T14:31:58.362Z,100037.42
2019-01-26T14:34:25.634Z,100028.70
2019-01-26T14:36:52.843Z,100016.32
2019-01-26T14:39:20.139Z,100024.23
2019-01-26T14:41:47.359Z,100024.23
2019-01-26T14:44:14.579Z,100015.47
2019-01-26T14:46:41.839Z,100009.69
2019-01-26T14:49:09.107Z,100003.73
2019-01-26T14:51:36.333Z,100016.46
2019-01-26T14:54:03.968Z,99993.41
2019-01-26T14:56:31.191Z,99993.41
2019-01-26T14:58:58.451Z,99989.96
2019-01-26T15:01:25.714Z,99989.96
2019-01-26T15:03:52.958Z,99987.71
2019-01-26T15:06:20.520Z,99995.00
2019-01-26T15:08:48.044Z,99989.24
2019-01-26T15:11:15.279Z,99987.66
2019-01-26T15:13:42.532Z,99978.48
2019-01-26T15:16:10.160Z,99977.38
2019-01-26T15:18:37.421Z,99973.67
2019-01-26T15:21:05.135Z,99975.35
2019-01-26T15:23:35.289Z,99974.67
2019-01-26T15:26:02.661Z,99973.08
2019-01-26T15:28:29.940Z,99949.97
2019-01-26T15:30:57.279Z,99957.88
2019-01-26T15:33:24.541Z,99957.88
2019-01-26T15:35:51.955Z,99949.88
2019-01-26T15:38:19.283Z,99948.59
2019-01-26T15:40:46.542Z,99935.13
2019-01-26T15:43:13.998Z,99933.82
2019-01-26T15:45:43.425Z,99931.02
2019-01-26T15:48:10.685Z,99921.45
2019-01-26T15:50:37.977Z,99918.59
2019-01-26T15:53:05.458Z,99919.55
2019-01-26T15:55:32.749Z,99913.14
2019-01-26T15:57:59.987Z,99909.37
2019-01-26T16:00:29.393Z,99894.03
2019-01-26T16:02:56.673Z,99902.66
2019-01-26T16:05:24.055Z,99896.64
2019-01-26T16:07:51.573Z,99890.95
2019-01-26T16:10:20.254Z,99883.78
2019-01-26T16:12:47.500Z,99884.98
2019-01-26T16:15:17.124Z,99878.46
2019-01-26T16:17:44.357Z,99874.11
2019-01-26T16:20:12.284Z,99864.20
2019-01-26T16:22:39.733Z,99858.59
2019-01-26T16:25:07.480Z,99858.52
2019-01-26T16:27:34.754Z,99851.75
2019-01-26T16:30:02.590Z,99847.53
2019-01-26T16:32:30.729Z,99843.18
2019-01-26T16:34:58.131Z,99838.09
2019-01-26T16:37:25.513Z,99832.89
2019-01-26T16:39:52.871Z,99828.64
2019-01-26T16:42:20.082Z,99816.63
2019-01-26T16:44:47.313Z,99817.00
2019-01-26T16:47:14.570Z,99812.35
2019-01-26T16:49:41.798Z,99801.39
2019-01-26T16:52:14.031Z,99798.27
2019-01-26T16:54:38.301Z,99791.12
2019-01-26T16:57:05.532Z,99786.55
2019-01-26T16:59:32.782Z,99787.56
2019-01-26T17:01:59.986Z,99774.21
2019-01-26T17:04:27.248Z,99767.30
2019-01-26T17:06:54.602Z,99758.43
2019-01-26T17:09:21.815Z,99760.83
2019-01-26T17:11:49.307Z,99758.70
2019-01-26T17:14:16.548Z,99756.95
2019-01-26T17:16:43.973Z,99748.30
2019-01-26T17:19:11.208Z,99753.70
2019-01-26T17:21:38.436Z,99748.86
2019-01-26T17:24:05.681Z,99748.86
2019-01-26T17:26:32.894Z,99751.59
2019-01-26T17:29:00.107Z,99753.05
2019-01-26T17:31:27.364Z,99742.19
2019-01-26T17:33:54.658Z,99738.09
2019-01-26T17:36:21.861Z,99725.30
2019-01-26T17:38:49.110Z,99727.95
2019-01-26T17:41:16.356Z,99720.19
2019-01-26T17:43:43.649Z,99715.25
2019-01-26T17:46:10.856Z,99702.81
2019-01-26T17:48:38.177Z,99699.21
2019-01-26T17:51:05.445Z,99697.39
2019-01-26T17:53:34.733Z,99697.23
2019-01-26T17:56:02.224Z,99686.61
2019-01-26T17:58:29.475Z,99684.15
2019-01-26T18:00:58.025Z,99680.73
2019-01-26T18:03:25.276Z,99680.73
2019-01-26T18:05:52.888Z,99672.82
2019-01-26T18:08:20.146Z,99674.33
2019-01-26T18:10:47.534Z,99671.02
2019-01-26T18:13:14.754Z,99660.47
2019-01-26T18:15:42.010Z,99656.42
2019-01-26T18:18:09.374Z,99645.50
2019-01-26T18:20:36.595Z,99640.41
2019-01-26T18:23:03.938Z,99634.98
2019-01-26T18:25:34.355Z,99630.73
2019-01-26T18:28:01.686Z,99621.91
2019-01-26T18:30:29.189Z,99618.10
2019-01-26T18:32:56.581Z,99616.27
2019-01-26T18:35:23.811Z,99619.21
2019-01-26T18:37:51.071Z,99602.94
2019-01-26T18:40:20.407Z,99597.73
2019-01-26T18:42:48.252Z,99596.02
2019-01-26T18:45:18.568Z,99591.42
2019-01-26T18:47:46.948Z,99587.31
2019-01-26T18:50:16.797Z,99586.69
2019-01-26T18:52:44.170Z,99581.16
2019-01-26T18:55:12.302Z,99575.94
2019-01-26T18:57:42.430Z,99574.18
2019-01-26T19:00:13.933Z,99575.41
2019-01-26T19:02:42.115Z,99574.25
2019-01-26T19:05:11.425Z,99564.14
2019-01-26T19:07:41.355Z,99554.69
2019-01-26T19:10:10.061Z,99559.61
2019-01-26T19:12:38.538Z,99550.27
2019-01-26T19:15:08.685Z,99538.49
2019-01-26T19:17:35.912Z,99533.24
2019-01-26T19:20:04.054Z,99530.88
2019-01-26T19:22:31.272Z,99530.34
2019-01-26T19:24:58.516Z,99522.46
2019-01-26T19:27:25.754Z,99513.14
2019-01-26T19:29:52.998Z,99504.36
2019-01-26T19:32:20.282Z,99498.68
2019-01-26T19:34:47.513Z,99496.88
2019-01-26T19:37:14.744Z,99498.18
2019-01-26T19:39:42.013Z,99484.84
2019-01-26T19:42:09.364Z,99475.56
2019-01-26T19:44:36.605Z,99469.20
2019-01-26T19:47:04.020Z,99464.80
2019-01-26T19:49:31.359Z,99465.11
2019-01-26T19:51:58.632Z,99450.15
2019-01-26T19:54:25.848Z,99445.74
2019-01-26T19:56:53.337Z,99441.80
2019-01-26T19:59:20.693Z,99437.77
2019-01-26T20:01:47.948Z,99428.24
2019-01-26T20:04:15.322Z,99414.84
2019-01-26T20:06:42.656Z,99411.80
2019-01-26T20:09:10.080Z,99408.80
2019-01-26T20:11:37.427Z,99408.20
2019-01-26T20:14:04.650Z,99404.86
2019-01-26T20:16:36.394Z,99393.48
2019-01-26T20:19:01.105Z,99384.59
2019-01-26T20:21:28.314Z,99375.31
2019-01-26T20:23:55.557Z,99373.09
2019-01-26T20:26:22.840Z,99369.77
2019-01-26T20:28:50.065Z,99365.51
2019-01-26T20:31:17.320Z,99362.63
2019-01-26T20:33:44.551Z,99343.78
2019-01-26T20:36:11.884Z,99339.52
2019-01-26T20:38:39.145Z,99336.97
2019-01-26T20:41:06.615Z,99331.73
2019-01-26T20:43:33.928Z,99319.62
2019-01-26T20:46:01.152Z,99316.31
2019-01-26T20:48:28.419Z,99317.23
2019-01-26T20:50:55.674Z,99313.53
2019-01-26T20:53:22.909Z,99317.71
2019-01-26T20:55:50.139Z,99296.25
2019-01-26T20:58:17.387Z,99282.41
2019-01-26T21:00:44.602Z,99291.02
2019-01-26T21:03:11.831Z,99283.94
2019-01-26T21:05:39.094Z,99270.86
2019-01-26T21:08:06.433Z,99257.67
2019-01-26T21:10:33.657Z,99256.86
2019-01-26T21:13:00.915Z,99245.67
2019-01-26T21:15:28.127Z,99237.82
2019-01-26T21:17:55.355Z,99236.72
2019-01-26T21:20:23.328Z,99231.14
2019-01-26T21:22:50.554Z,99231.08
2019-01-26T21:25:17.774Z,99228.08
2019-01-26T21:27:45.173Z,99217.63
2019-01-26T21:30:15.672Z,99216.27
2019-01-26T21:32:42.892Z,99206.86
2019-01-26T21:35:10.383Z,99197.61
2019-01-26T21:37:37.601Z,99194.33
2019-01-26T21:40:07.333Z,99187.16
2019-01-26T21:42:34.607Z,99188.47
2019-01-26T21:45:03.112Z,99187.16
2019-01-26T21:47:30.574Z,99186.28
2019-01-26T21:49:57.926Z,99167.48
2019-01-26T21:52:25.132Z,99169.80
2019-01-26T21:54:52.379Z,99170.73
2019-01-26T21:57:19.584Z,99163.85
2019-01-26T21:59:46.813Z,99154.64
2019-01-26T22:02:14.077Z,99147.96
2019-01-26T22:04:41.301Z,99154.25
2019-01-26T22:07:08.587Z,99131.97
2019-01-26T22:09:35.805Z,99126.61
2019-01-26T22:12:03.147Z,99123.25
2019-01-26T22:14:30.421Z,99121.64
2019-01-26T22:16:57.641Z,99108.38
2019-01-26T22:19:24.898Z,99106.34
2019-01-26T22:21:52.168Z,99097.19
2019-01-26T22:24:19.368Z,99092.03
2019-01-26T22:26:46.590Z,99085.48
2019-01-26T22:29:13.862Z,99079.78
2019-01-26T22:31:41.072Z,99079.30
2019-01-26T22:34:08.343Z,99080.30
2019-01-26T22:36:35.639Z,99072.80
2019-01-26T22:39:06.653Z,99066.30
2019-01-26T22:41:33.893Z,99065.16
2019-01-26T22:44:01.126Z,99058.14
2019-01-26T22:46:28.422Z,99052.91
2019-01-26T22:48:55.666Z,99042.80
2019-01-26T22:51:22.876Z,99039.43
2019-01-26T22:53:50.121Z,99036.86
2019-01-26T22:56:17.364Z,99032.05
2019-01-26T22:58:44.589Z,99024.28
2019-01-26T23:01:25.187Z,99018.14
2019-01-26T23:04:18.304Z,99017.19
2019-01-26T23:07:14.661Z,99008.98
2019-01-26T23:10:10.624Z,99007.42
2019-01-26T23:13:17.608Z,99005.64
2019-01-26T23:16:21.447Z,99001.23
2019-01-26T23:19:13.118Z,98981.61
2019-01-26T23:22:30.278Z,98975.50
2019-01-26T23:25:16.940Z,98971.06
2019-01-26T23:28:09.980Z,98959.29
2019-01-26T23:31:11.579Z,98957.07
2019-01-26T23:33:39.046Z,98957.21
2019-01-26T23:36:06.376Z,98947.91
2019-01-26T23:38:33.639Z,98938.28
2019-01-26T23:41:00.865Z,98939.55
2019-01-26T23:43:28.071Z,98928.61
2019-01-26T23:45:55.334Z,98916.47
2019-01-26T23:48:22.527Z,98916.44
2019-01-26T23:50:49.783Z,98909.53
2019-01-26T23:53:17.017Z,98896.48
2019-01-26T23:55:44.226Z,98894.27
2019-01-26T23:58:11.456Z,98881.15
